sensor_id;sensor_type;location;lat;lon;timestamp;temperature;humidity
72762;SHT30;60886;55.034;73.150;2024-02-16T00:00:25;-26.84;75.38
72762;SHT30;60886;55.034;73.150;2024-02-16T00:03:27;-26.86;75.62
72762;SHT30;60886;55.034;73.150;2024-02-16T00:06:29;-26.81;75.80
72762;SHT30;60886;55.034;73.150;2024-02-16T00:09:30;-26.79;76.01
72762;SHT30;60886;55.034;73.150;2024-02-16T00:12:34;-26.70;76.12
72762;SHT30;60886;55.034;73.150;2024-02-16T00:15:36;-26.60;76.46
72762;SHT30;60886;55.034;73.150;2024-02-16T00:18:39;-26.60;76.32
72762;SHT30;60886;55.034;73.150;2024-02-16T00:21:41;-26.57;76.30
72762;SHT30;60886;55.034;73.150;2024-02-16T00:24:43;-26.53;76.27
72762;SHT30;60886;55.034;73.150;2024-02-16T00:27:45;-26.56;76.26
72762;SHT30;60886;55.034;73.150;2024-02-16T00:30:46;-26.46;76.44
72762;SHT30;60886;55.034;73.150;2024-02-16T00:33:49;-26.51;76.18
72762;SHT30;60886;55.034;73.150;2024-02-16T00:36:50;-26.45;76.18
72762;SHT30;60886;55.034;73.150;2024-02-16T00:39:53;-26.38;76.24
72762;SHT30;60886;55.034;73.150;2024-02-16T00:42:56;-26.33;76.40
72762;SHT30;60886;55.034;73.150;2024-02-16T00:45:57;-26.32;76.00
72762;SHT30;60886;55.034;73.150;2024-02-16T00:48:59;-26.28;75.93
72762;SHT30;60886;55.034;73.150;2024-02-16T00:52:00;-26.41;75.69
72762;SHT30;60886;55.034;73.150;2024-02-16T00:55:03;-26.38;75.67
72762;SHT30;60886;55.034;73.150;2024-02-16T00:58:05;-26.38;75.67
72762;SHT30;60886;55.034;73.150;2024-02-16T01:01:07;-26.35;75.88
72762;SHT30;60886;55.034;73.150;2024-02-16T01:04:11;-26.27;76.11
72762;SHT30;60886;55.034;73.150;2024-02-16T01:07:13;-26.28;75.96
72762;SHT30;60886;55.034;73.150;2024-02-16T01:10:14;-26.32;75.77
72762;SHT30;60886;55.034;73.150;2024-02-16T01:13:16;-26.25;75.76
72762;SHT30;60886;55.034;73.150;2024-02-16T01:16:17;-26.36;75.76
72762;SHT30;60886;55.034;73.150;2024-02-16T01:19:19;-26.36;75.59
72762;SHT30;60886;55.034;73.150;2024-02-16T01:22:20;-26.33;75.72
72762;SHT30;60886;55.034;73.150;2024-02-16T01:25:25;-26.33;75.81
72762;SHT30;60886;55.034;73.150;2024-02-16T01:28:27;-26.29;75.78
72762;SHT30;60886;55.034;73.150;2024-02-16T01:31:28;-26.27;75.74
72762;SHT30;60886;55.034;73.150;2024-02-16T01:34:30;-26.20;75.68
72762;SHT30;60886;55.034;73.150;2024-02-16T01:37:33;-26.22;75.57
72762;SHT30;60886;55.034;73.150;2024-02-16T01:40:35;-26.20;75.37
72762;SHT30;60886;55.034;73.150;2024-02-16T01:43:37;-26.18;75.51
72762;SHT30;60886;55.034;73.150;2024-02-16T01:46:39;-26.18;75.44
72762;SHT30;60886;55.034;73.150;2024-02-16T01:49:40;-26.20;75.41
72762;SHT30;60886;55.034;73.150;2024-02-16T01:52:43;-26.31;75.30
72762;SHT30;60886;55.034;73.150;2024-02-16T01:55:46;-26.28;75.47
72762;SHT30;60886;55.034;73.150;2024-02-16T01:58:48;-26.36;75.64
72762;SHT30;60886;55.034;73.150;2024-02-16T02:01:52;-26.25;75.70
72762;SHT30;60886;55.034;73.150;2024-02-16T02:04:54;-26.20;75.85
72762;SHT30;60886;55.034;73.150;2024-02-16T02:07:55;-26.38;75.52
72762;SHT30;60886;55.034;73.150;2024-02-16T02:10:57;-26.39;75.32
72762;SHT30;60886;55.034;73.150;2024-02-16T02:13:58;-26.38;75.55
72762;SHT30;60886;55.034;73.150;2024-02-16T02:16:59;-26.33;75.85
72762;SHT30;60886;55.034;73.150;2024-02-16T02:20:02;-26.28;75.98
72762;SHT30;60886;55.034;73.150;2024-02-16T02:23:09;-26.33;75.70
72762;SHT30;60886;55.034;73.150;2024-02-16T02:26:10;-26.29;75.54
72762;SHT30;60886;55.034;73.150;2024-02-16T02:29:12;-26.33;75.58
72762;SHT30;60886;55.034;73.150;2024-02-16T02:32:13;-26.33;75.56
72762;SHT30;60886;55.034;73.150;2024-02-16T02:35:26;-26.41;75.62
72762;SHT30;60886;55.034;73.150;2024-02-16T02:38:28;-26.43;75.71
72762;SHT30;60886;55.034;73.150;2024-02-16T02:41:29;-26.51;75.74
72762;SHT30;60886;55.034;73.150;2024-02-16T02:44:30;-26.46;75.55
72762;SHT30;60886;55.034;73.150;2024-02-16T02:47:33;-26.45;75.61
72762;SHT30;60886;55.034;73.150;2024-02-16T02:50:34;-26.43;75.57
72762;SHT30;60886;55.034;73.150;2024-02-16T02:53:36;-26.42;75.34
72762;SHT30;60886;55.034;73.150;2024-02-16T02:56:37;-26.36;75.43
72762;SHT30;60886;55.034;73.150;2024-02-16T02:59:39;-26.36;75.43
72762;SHT30;60886;55.034;73.150;2024-02-16T03:02:40;-26.46;75.23
72762;SHT30;60886;55.034;73.150;2024-02-16T03:05:42;-26.33;75.40
72762;SHT30;60886;55.034;73.150;2024-02-16T03:08:44;-26.27;75.53
72762;SHT30;60886;55.034;73.150;2024-02-16T03:11:46;-26.28;75.26
72762;SHT30;60886;55.034;73.150;2024-02-16T03:14:47;-26.32;75.16
72762;SHT30;60886;55.034;73.150;2024-02-16T03:17:49;-26.36;75.04
72762;SHT30;60886;55.034;73.150;2024-02-16T03:20:50;-26.35;75.13
72762;SHT30;60886;55.034;73.150;2024-02-16T03:23:52;-26.25;75.06
72762;SHT30;60886;55.034;73.150;2024-02-16T03:26:53;-26.17;75.07
72762;SHT30;60886;55.034;73.150;2024-02-16T03:29:55;-26.01;75.10
72762;SHT30;60886;55.034;73.150;2024-02-16T03:32:56;-25.96;75.02
72762;SHT30;60886;55.034;73.150;2024-02-16T03:35:58;-25.80;74.79
72762;SHT30;60886;55.034;73.150;2024-02-16T03:39:00;-25.74;74.51
72762;SHT30;60886;55.034;73.150;2024-02-16T03:42:02;-25.63;74.25
72762;SHT30;60886;55.034;73.150;2024-02-16T03:45:06;-25.61;73.70
72762;SHT30;60886;55.034;73.150;2024-02-16T03:48:08;-25.49;73.47
72762;SHT30;60886;55.034;73.150;2024-02-16T03:51:09;-25.39;73.28
72762;SHT30;60886;55.034;73.150;2024-02-16T03:54:11;-25.41;72.87
72762;SHT30;60886;55.034;73.150;2024-02-16T03:57:13;-25.37;72.89
72762;SHT30;60886;55.034;73.150;2024-02-16T04:00:14;-25.28;72.75
72762;SHT30;60886;55.034;73.150;2024-02-16T04:03:16;-25.15;72.57
72762;SHT30;60886;55.034;73.150;2024-02-16T04:06:18;-25.07;72.30
72762;SHT30;60886;55.034;73.150;2024-02-16T04:09:20;-24.87;72.27
72762;SHT30;60886;55.034;73.150;2024-02-16T04:12:22;-24.67;71.93
72762;SHT30;60886;55.034;73.150;2024-02-16T04:15:25;-24.33;71.47
72762;SHT30;60886;55.034;73.150;2024-02-16T04:18:27;-24.24;70.56
72762;SHT30;60886;55.034;73.150;2024-02-16T04:21:28;-24.07;70.03
72762;SHT30;60886;55.034;73.150;2024-02-16T04:24:30;-24.01;69.49
72762;SHT30;60886;55.034;73.150;2024-02-16T04:27:31;-24.02;69.22
72762;SHT30;60886;55.034;73.150;2024-02-16T04:30:33;-23.74;69.16
72762;SHT30;60886;55.034;73.150;2024-02-16T04:33:34;-23.43;68.68
72762;SHT30;60886;55.034;73.150;2024-02-16T04:36:36;-22.56;67.76
72762;SHT30;60886;55.034;73.150;2024-02-16T04:39:37;-22.46;65.97
72762;SHT30;60886;55.034;73.150;2024-02-16T04:42:39;-22.39;64.41
72762;SHT30;60886;55.034;73.150;2024-02-16T04:45:43;-22.68;64.26
72762;SHT30;60886;55.034;73.150;2024-02-16T04:48:45;-23.05;64.53
72762;SHT30;60886;55.034;73.150;2024-02-16T04:51:47;-23.26;65.16
72762;SHT30;60886;55.034;73.150;2024-02-16T04:54:48;-23.43;65.92
72762;SHT30;60886;55.034;73.150;2024-02-16T04:57:50;-23.50;66.59
72762;SHT30;60886;55.034;73.150;2024-02-16T05:00:52;-23.33;67.18
72762;SHT30;60886;55.034;73.150;2024-02-16T05:03:58;-23.39;66.95
72762;SHT30;60886;55.034;73.150;2024-02-16T05:07:01;-23.41;66.97
72762;SHT30;60886;55.034;73.150;2024-02-16T05:10:03;-23.39;67.10
72762;SHT30;60886;55.034;73.150;2024-02-16T05:13:06;-23.29;67.06
72762;SHT30;60886;55.034;73.150;2024-02-16T05:16:09;-23.12;67.04
72762;SHT30;60886;55.034;73.150;2024-02-16T05:19:11;-23.11;66.65
72762;SHT30;60886;55.034;73.150;2024-02-16T05:22:12;-23.07;66.48
72762;SHT30;60886;55.034;73.150;2024-02-16T05:25:14;-22.94;66.82
72762;SHT30;60886;55.034;73.150;2024-02-16T05:28:16;-22.87;66.43
72762;SHT30;60886;55.034;73.150;2024-02-16T05:31:18;-22.88;66.25
72762;SHT30;60886;55.034;73.150;2024-02-16T05:34:20;-22.84;66.14
72762;SHT30;60886;55.034;73.150;2024-02-16T05:37:21;-22.94;66.02
72762;SHT30;60886;55.034;73.150;2024-02-16T05:40:25;-23.02;66.10
72762;SHT30;60886;55.034;73.150;2024-02-16T05:43:28;-22.97;66.63
72762;SHT30;60886;55.034;73.150;2024-02-16T05:46:29;-22.84;66.80
72762;SHT30;60886;55.034;73.150;2024-02-16T05:49:31;-22.80;66.73
72762;SHT30;60886;55.034;73.150;2024-02-16T05:52:32;-22.81;66.59
72762;SHT30;60886;55.034;73.150;2024-02-16T05:55:34;-22.85;66.46
72762;SHT30;60886;55.034;73.150;2024-02-16T05:58:35;-23.05;66.50
72762;SHT30;60886;55.034;73.150;2024-02-16T06:01:37;-22.97;67.39
72762;SHT30;60886;55.034;73.150;2024-02-16T06:04:40;-23.09;67.29
72762;SHT30;60886;55.034;73.150;2024-02-16T06:07:42;-23.09;67.50
72762;SHT30;60886;55.034;73.150;2024-02-16T06:10:44;-22.99;67.80
72762;SHT30;60886;55.034;73.150;2024-02-16T06:13:52;-23.02;67.62
72762;SHT30;60886;55.034;73.150;2024-02-16T06:16:53;-23.07;67.42
72762;SHT30;60886;55.034;73.150;2024-02-16T06:19:57;-22.84;67.85
72762;SHT30;60886;55.034;73.150;2024-02-16T06:22:58;-22.80;67.70
72762;SHT30;60886;55.034;73.150;2024-02-16T06:26:00;-22.77;67.61
72762;SHT30;60886;55.034;73.150;2024-02-16T06:29:01;-22.63;67.61
72762;SHT30;60886;55.034;73.150;2024-02-16T06:32:03;-22.59;67.47
72762;SHT30;60886;55.034;73.150;2024-02-16T06:35:05;-22.37;67.43
72762;SHT30;60886;55.034;73.150;2024-02-16T06:38:08;-22.33;67.33
72762;SHT30;60886;55.034;73.150;2024-02-16T06:41:09;-22.29;66.94
72762;SHT30;60886;55.034;73.150;2024-02-16T06:44:12;-22.19;67.29
72762;SHT30;60886;55.034;73.150;2024-02-16T06:47:13;-22.37;67.11
72762;SHT30;60886;55.034;73.150;2024-02-16T06:50:25;-22.47;67.53
72762;SHT30;60886;55.034;73.150;2024-02-16T06:53:26;-22.54;68.06
72762;SHT30;60886;55.034;73.150;2024-02-16T06:56:28;-22.54;68.64
72762;SHT30;60886;55.034;73.150;2024-02-16T06:59:30;-22.57;68.74
72762;SHT30;60886;55.034;73.150;2024-02-16T07:02:32;-22.56;68.85
72762;SHT30;60886;55.034;73.150;2024-02-16T07:05:34;-22.59;68.89
72762;SHT30;60886;55.034;73.150;2024-02-16T07:08:36;-22.63;68.79
72762;SHT30;60886;55.034;73.150;2024-02-16T07:11:38;-22.64;68.73
72762;SHT30;60886;55.034;73.150;2024-02-16T07:14:40;-22.57;68.65
72762;SHT30;60886;55.034;73.150;2024-02-16T07:17:42;-22.46;68.66
72762;SHT30;60886;55.034;73.150;2024-02-16T07:20:43;-22.42;68.40
72762;SHT30;60886;55.034;73.150;2024-02-16T07:23:45;-22.36;68.30
72762;SHT30;60886;55.034;73.150;2024-02-16T07:26:46;-22.36;68.24
72762;SHT30;60886;55.034;73.150;2024-02-16T07:29:48;-22.32;68.15
72762;SHT30;60886;55.034;73.150;2024-02-16T07:32:50;-22.42;67.98
72762;SHT30;60886;55.034;73.150;2024-02-16T07:35:53;-22.43;68.17
72762;SHT30;60886;55.034;73.150;2024-02-16T07:38:55;-22.39;68.54
72762;SHT30;60886;55.034;73.150;2024-02-16T07:41:57;-22.25;68.75
72762;SHT30;60886;55.034;73.150;2024-02-16T07:44:58;-22.34;67.98
72762;SHT30;60886;55.034;73.150;2024-02-16T07:47:59;-22.23;68.47
72762;SHT30;60886;55.034;73.150;2024-02-16T07:51:05;-22.14;68.41
72762;SHT30;60886;55.034;73.150;2024-02-16T07:54:09;-22.08;68.20
72762;SHT30;60886;55.034;73.150;2024-02-16T07:57:10;-21.93;68.10
72762;SHT30;60886;55.034;73.150;2024-02-16T08:00:12;-22.01;67.78
72762;SHT30;60886;55.034;73.150;2024-02-16T08:03:14;-21.95;68.00
72762;SHT30;60886;55.034;73.150;2024-02-16T08:06:15;-22.08;67.73
72762;SHT30;60886;55.034;73.150;2024-02-16T08:09:19;-22.08;68.18
72762;SHT30;60886;55.034;73.150;2024-02-16T08:12:20;-22.08;68.38
72762;SHT30;60886;55.034;73.150;2024-02-16T08:15:25;-21.96;68.64
72762;SHT30;60886;55.034;73.150;2024-02-16T08:18:27;-21.99;68.51
72762;SHT30;60886;55.034;73.150;2024-02-16T08:21:28;-21.85;68.77
72762;SHT30;60886;55.034;73.150;2024-02-16T08:24:32;-21.82;68.67
72762;SHT30;60886;55.034;73.150;2024-02-16T08:27:34;-21.74;68.60
72762;SHT30;60886;55.034;73.150;2024-02-16T08:30:36;-21.77;68.37
72762;SHT30;60886;55.034;73.150;2024-02-16T08:33:42;-21.77;68.31
72762;SHT30;60886;55.034;73.150;2024-02-16T08:36:47;-21.74;68.48
72762;SHT30;60886;55.034;73.150;2024-02-16T08:39:49;-21.68;68.82
72762;SHT30;60886;55.034;73.150;2024-02-16T08:42:51;-21.57;68.70
72762;SHT30;60886;55.034;73.150;2024-02-16T08:45:52;-21.47;68.28
72762;SHT30;60886;55.034;73.150;2024-02-16T08:48:54;-21.59;67.37
72762;SHT30;60886;55.034;73.150;2024-02-16T08:51:56;-21.54;67.72
72762;SHT30;60886;55.034;73.150;2024-02-16T08:54:57;-21.58;67.89
72762;SHT30;60886;55.034;73.150;2024-02-16T08:57:59;-21.62;67.93
72762;SHT30;60886;55.034;73.150;2024-02-16T09:01:00;-21.57;68.13
72762;SHT30;60886;55.034;73.150;2024-02-16T09:04:02;-21.51;67.98
72762;SHT30;60886;55.034;73.150;2024-02-16T09:07:04;-21.48;67.65
72762;SHT30;60886;55.034;73.150;2024-02-16T09:10:06;-21.44;67.78
72762;SHT30;60886;55.034;73.150;2024-02-16T09:13:09;-21.43;67.78
72762;SHT30;60886;55.034;73.150;2024-02-16T09:16:10;-21.38;67.90
72762;SHT30;60886;55.034;73.150;2024-02-16T09:19:12;-21.61;67.56
72762;SHT30;60886;55.034;73.150;2024-02-16T09:22:13;-21.47;68.17
72762;SHT30;60886;55.034;73.150;2024-02-16T09:25:15;-21.44;68.03
72762;SHT30;60886;55.034;73.150;2024-02-16T09:28:16;-21.46;67.88
72762;SHT30;60886;55.034;73.150;2024-02-16T09:31:20;-21.51;67.90
72762;SHT30;60886;55.034;73.150;2024-02-16T09:34:22;-21.44;68.15
72762;SHT30;60886;55.034;73.150;2024-02-16T09:37:23;-21.50;68.16
72762;SHT30;60886;55.034;73.150;2024-02-16T09:40:25;-21.37;68.37
72762;SHT30;60886;55.034;73.150;2024-02-16T09:43:29;-21.26;68.40
72762;SHT30;60886;55.034;73.150;2024-02-16T09:46:31;-21.20;68.07
72762;SHT30;60886;55.034;73.150;2024-02-16T09:49:34;-21.19;67.88
72762;SHT30;60886;55.034;73.150;2024-02-16T09:52:39;-21.24;68.01
72762;SHT30;60886;55.034;73.150;2024-02-16T09:55:42;-21.17;68.20
72762;SHT30;60886;55.034;73.150;2024-02-16T09:58:44;-21.19;68.00
72762;SHT30;60886;55.034;73.150;2024-02-16T10:01:46;-21.07;68.31
72762;SHT30;60886;55.034;73.150;2024-02-16T10:04:48;-21.09;68.14
72762;SHT30;60886;55.034;73.150;2024-02-16T10:07:49;-21.14;68.12
72762;SHT30;60886;55.034;73.150;2024-02-16T10:11:00;-21.16;68.40
72762;SHT30;60886;55.034;73.150;2024-02-16T10:14:03;-21.22;68.40
72762;SHT30;60886;55.034;73.150;2024-02-16T10:17:06;-21.22;68.58
72762;SHT30;60886;55.034;73.150;2024-02-16T10:20:08;-21.22;68.81
72762;SHT30;60886;55.034;73.150;2024-02-16T10:23:12;-21.19;68.87
72762;SHT30;60886;55.034;73.150;2024-02-16T10:26:13;-21.16;68.76
72762;SHT30;60886;55.034;73.150;2024-02-16T10:29:18;-21.09;68.68
72762;SHT30;60886;55.034;73.150;2024-02-16T10:32:24;-21.07;68.64
72762;SHT30;60886;55.034;73.150;2024-02-16T10:35:25;-21.24;68.41
72762;SHT30;60886;55.034;73.150;2024-02-16T10:38:32;-21.31;68.69
72762;SHT30;60886;55.034;73.150;2024-02-16T10:41:37;-21.28;69.12
72762;SHT30;60886;55.034;73.150;2024-02-16T10:44:39;-21.30;68.98
72762;SHT30;60886;55.034;73.150;2024-02-16T10:47:44;-21.28;68.95
72762;SHT30;60886;55.034;73.150;2024-02-16T10:50:49;-21.23;69.13
72762;SHT30;60886;55.034;73.150;2024-02-16T10:53:55;-21.13;69.00
72762;SHT30;60886;55.034;73.150;2024-02-16T10:56:57;-21.24;68.70
72762;SHT30;60886;55.034;73.150;2024-02-16T11:00:00;-21.22;68.88
72762;SHT30;60886;55.034;73.150;2024-02-16T11:03:03;-21.31;68.71
72762;SHT30;60886;55.034;73.150;2024-02-16T11:06:17;-21.41;68.81
72762;SHT30;60886;55.034;73.150;2024-02-16T11:09:35;-21.47;68.99
72762;SHT30;60886;55.034;73.150;2024-02-16T11:12:36;-21.50;69.13
72762;SHT30;60886;55.034;73.150;2024-02-16T11:15:40;-21.51;69.24
72762;SHT30;60886;55.034;73.150;2024-02-16T11:18:45;-21.54;69.33
72762;SHT30;60886;55.034;73.150;2024-02-16T11:21:57;-21.58;69.36
72762;SHT30;60886;55.034;73.150;2024-02-16T11:24:58;-21.64;69.45
72762;SHT30;60886;55.034;73.150;2024-02-16T11:28:01;-21.69;69.49
72762;SHT30;60886;55.034;73.150;2024-02-16T11:31:04;-21.72;69.59
72762;SHT30;60886;55.034;73.150;2024-02-16T11:34:06;-21.65;69.92
72762;SHT30;60886;55.034;73.150;2024-02-16T11:37:07;-21.69;69.70
72762;SHT30;60886;55.034;73.150;2024-02-16T11:40:20;-21.74;69.67
72762;SHT30;60886;55.034;73.150;2024-02-16T11:43:26;-21.82;69.76
72762;SHT30;60886;55.034;73.150;2024-02-16T11:46:28;-21.89;70.01
72762;SHT30;60886;55.034;73.150;2024-02-16T11:49:29;-21.98;70.20
72762;SHT30;60886;55.034;73.150;2024-02-16T11:52:34;-21.95;70.19
72762;SHT30;60886;55.034;73.150;2024-02-16T11:55:36;-22.01;70.13
72762;SHT30;60886;55.034;73.150;2024-02-16T11:58:38;-22.10;70.18
72762;SHT30;60886;55.034;73.150;2024-02-16T12:01:54;-22.22;70.29
72762;SHT30;60886;55.034;73.150;2024-02-16T12:05:26;-22.30;70.34
72762;SHT30;60886;55.034;73.150;2024-02-16T12:08:33;-22.33;70.49
72762;SHT30;60886;55.034;73.150;2024-02-16T12:11:36;-22.34;70.53
72762;SHT30;60886;55.034;73.150;2024-02-16T12:14:41;-22.42;70.51
72762;SHT30;60886;55.034;73.150;2024-02-16T12:17:42;-22.56;70.44
72762;SHT30;60886;55.034;73.150;2024-02-16T12:20:44;-22.56;70.72
72762;SHT30;60886;55.034;73.150;2024-02-16T12:23:49;-22.67;70.74
72762;SHT30;60886;55.034;73.150;2024-02-16T12:27:10;-22.70;70.95
72762;SHT30;60886;55.034;73.150;2024-02-16T12:30:12;-22.66;71.15
72762;SHT30;60886;55.034;73.150;2024-02-16T12:33:14;-22.71;71.07
72762;SHT30;60886;55.034;73.150;2024-02-16T12:36:20;-22.74;71.07
72762;SHT30;60886;55.034;73.150;2024-02-16T12:39:24;-22.78;70.93
72762;SHT30;60886;55.034;73.150;2024-02-16T12:42:25;-22.85;70.82
72762;SHT30;60886;55.034;73.150;2024-02-16T12:45:26;-22.92;70.73
72762;SHT30;60886;55.034;73.150;2024-02-16T12:48:28;-23.01;70.82
72762;SHT30;60886;55.034;73.150;2024-02-16T12:51:29;-23.04;71.01
72762;SHT30;60886;55.034;73.150;2024-02-16T12:54:31;-23.07;71.24
72762;SHT30;60886;55.034;73.150;2024-02-16T12:57:33;-23.14;71.23
72762;SHT30;60886;55.034;73.150;2024-02-16T13:00:35;-23.11;71.37
72762;SHT30;60886;55.034;73.150;2024-02-16T13:03:56;-23.15;71.39
72762;SHT30;60886;55.034;73.150;2024-02-16T13:06:58;-23.16;71.49
72762;SHT30;60886;55.034;73.150;2024-02-16T13:09:59;-23.15;71.43
72762;SHT30;60886;55.034;73.150;2024-02-16T13:13:19;-23.23;71.34
72762;SHT30;60886;55.034;73.150;2024-02-16T13:16:22;-23.22;71.37
72762;SHT30;60886;55.034;73.150;2024-02-16T13:19:23;-23.23;71.41
72762;SHT30;60886;55.034;73.150;2024-02-16T13:22:25;-23.26;71.49
72762;SHT30;60886;55.034;73.150;2024-02-16T13:25:44;-23.28;71.44
72762;SHT30;60886;55.034;73.150;2024-02-16T13:29:43;-23.21;71.47
72762;SHT30;60886;55.034;73.150;2024-02-16T13:33:07;-23.12;71.41
72762;SHT30;60886;55.034;73.150;2024-02-16T13:36:24;-23.12;71.17
72762;SHT30;60886;55.034;73.150;2024-02-16T13:39:25;-23.14;71.02
72762;SHT30;60886;55.034;73.150;2024-02-16T13:42:28;-23.16;70.95
72762;SHT30;60886;55.034;73.150;2024-02-16T13:45:47;-23.12;71.03
72762;SHT30;60886;55.034;73.150;2024-02-16T13:48:50;-22.99;71.14
72762;SHT30;60886;55.034;73.150;2024-02-16T13:51:52;-22.98;70.72
72762;SHT30;60886;55.034;73.150;2024-02-16T13:54:55;-23.01;70.54
72762;SHT30;60886;55.034;73.150;2024-02-16T13:57:56;-23.08;70.44
72762;SHT30;60886;55.034;73.150;2024-02-16T14:00:58;-23.12;70.43
72762;SHT30;60886;55.034;73.150;2024-02-16T14:04:00;-23.19;70.57
72762;SHT30;60886;55.034;73.150;2024-02-16T14:07:02;-23.23;70.91
72762;SHT30;60886;55.034;73.150;2024-02-16T14:10:04;-23.25;71.05
72762;SHT30;60886;55.034;73.150;2024-02-16T14:13:08;-23.31;71.09
72762;SHT30;60886;55.034;73.150;2024-02-16T14:16:12;-23.38;71.02
72762;SHT30;60886;55.034;73.150;2024-02-16T14:19:14;-23.36;71.40
72762;SHT30;60886;55.034;73.150;2024-02-16T14:22:20;-23.42;71.41
72762;SHT30;60886;55.034;73.150;2024-02-16T14:25:24;-23.38;71.68
72762;SHT30;60886;55.034;73.150;2024-02-16T14:28:27;-23.46;71.59
72762;SHT30;60886;55.034;73.150;2024-02-16T14:31:30;-23.39;71.92
72762;SHT30;60886;55.034;73.150;2024-02-16T14:34:32;-23.42;71.92
72762;SHT30;60886;55.034;73.150;2024-02-16T14:37:35;-23.47;71.74
72762;SHT30;60886;55.034;73.150;2024-02-16T14:40:37;-23.45;71.76
72762;SHT30;60886;55.034;73.150;2024-02-16T14:43:40;-23.32;71.96
72762;SHT30;60886;55.034;73.150;2024-02-16T14:46:42;-23.32;71.89
72762;SHT30;60886;55.034;73.150;2024-02-16T14:49:44;-23.33;71.78
72762;SHT30;60886;55.034;73.150;2024-02-16T14:52:46;-23.33;71.81
72762;SHT30;60886;55.034;73.150;2024-02-16T14:55:48;-23.29;71.92
72762;SHT30;60886;55.034;73.150;2024-02-16T14:58:51;-23.26;71.92
72762;SHT30;60886;55.034;73.150;2024-02-16T15:01:53;-23.22;71.99
72762;SHT30;60886;55.034;73.150;2024-02-16T15:04:54;-23.25;71.94
72762;SHT30;60886;55.034;73.150;2024-02-16T15:07:56;-23.25;71.89
72762;SHT30;60886;55.034;73.150;2024-02-16T15:10:58;-23.25;71.78
72762;SHT30;60886;55.034;73.150;2024-02-16T15:14:00;-23.28;71.91
72762;SHT30;60886;55.034;73.150;2024-02-16T15:17:02;-23.33;71.94
72762;SHT30;60886;55.034;73.150;2024-02-16T15:20:06;-23.35;71.87
72762;SHT30;60886;55.034;73.150;2024-02-16T15:23:10;-23.29;71.97
72762;SHT30;60886;55.034;73.150;2024-02-16T15:26:13;-23.31;71.96
72762;SHT30;60886;55.034;73.150;2024-02-16T15:29:19;-23.29;71.99
72762;SHT30;60886;55.034;73.150;2024-02-16T15:32:25;-23.26;72.12
72762;SHT30;60886;55.034;73.150;2024-02-16T15:35:30;-23.28;72.12
72762;SHT30;60886;55.034;73.150;2024-02-16T15:38:32;-23.19;72.17
72762;SHT30;60886;55.034;73.150;2024-02-16T15:41:34;-23.21;71.89
72762;SHT30;60886;55.034;73.150;2024-02-16T15:44:35;-23.23;71.87
72762;SHT30;60886;55.034;73.150;2024-02-16T15:47:38;-23.23;71.78
72762;SHT30;60886;55.034;73.150;2024-02-16T15:50:40;-23.26;71.67
72762;SHT30;60886;55.034;73.150;2024-02-16T15:53:42;-23.31;71.72
72762;SHT30;60886;55.034;73.150;2024-02-16T15:56:49;-23.38;71.62
72762;SHT30;60886;55.034;73.150;2024-02-16T15:59:53;-23.31;71.87
72762;SHT30;60886;55.034;73.150;2024-02-16T16:03:02;-23.35;71.73
72762;SHT30;60886;55.034;73.150;2024-02-16T16:06:04;-23.31;71.66
72762;SHT30;60886;55.034;73.150;2024-02-16T16:09:06;-23.32;71.55
72762;SHT30;60886;55.034;73.150;2024-02-16T16:12:11;-23.38;71.42
72762;SHT30;60886;55.034;73.150;2024-02-16T16:15:13;-23.29;71.42
72762;SHT30;60886;55.034;73.150;2024-02-16T16:18:22;-23.28;71.44
72762;SHT30;60886;55.034;73.150;2024-02-16T16:21:24;-23.29;71.35
72762;SHT30;60886;55.034;73.150;2024-02-16T16:24:27;-23.31;71.30
72762;SHT30;60886;55.034;73.150;2024-02-16T16:27:30;-23.33;71.35
72762;SHT30;60886;55.034;73.150;2024-02-16T16:30:31;-23.29;71.54
72762;SHT30;60886;55.034;73.150;2024-02-16T16:33:33;-23.32;71.42
72762;SHT30;60886;55.034;73.150;2024-02-16T16:36:35;-23.46;71.42
72762;SHT30;60886;55.034;73.150;2024-02-16T16:39:40;-23.50;71.50
72762;SHT30;60886;55.034;73.150;2024-02-16T16:42:41;-23.62;71.47
72762;SHT30;60886;55.034;73.150;2024-02-16T16:45:44;-23.67;71.55
72762;SHT30;60886;55.034;73.150;2024-02-16T16:48:56;-23.71;71.86
72762;SHT30;60886;55.034;73.150;2024-02-16T16:51:58;-23.66;72.20
72762;SHT30;60886;55.034;73.150;2024-02-16T16:55:05;-23.64;72.08
72762;SHT30;60886;55.034;73.150;2024-02-16T16:58:07;-23.67;72.05
72762;SHT30;60886;55.034;73.150;2024-02-16T17:01:08;-23.80;72.00
72762;SHT30;60886;55.034;73.150;2024-02-16T17:04:11;-23.86;72.09
72762;SHT30;60886;55.034;73.150;2024-02-16T17:07:18;-23.81;72.22
72762;SHT30;60886;55.034;73.150;2024-02-16T17:10:24;-23.77;72.39
72762;SHT30;60886;55.034;73.150;2024-02-16T17:13:26;-23.77;72.71
72762;SHT30;60886;55.034;73.150;2024-02-16T17:16:27;-23.71;72.48
72762;SHT30;60886;55.034;73.150;2024-02-16T17:19:29;-23.76;72.07
72762;SHT30;60886;55.034;73.150;2024-02-16T17:22:30;-23.77;71.93
72762;SHT30;60886;55.034;73.150;2024-02-16T17:25:32;-23.78;71.84
72762;SHT30;60886;55.034;73.150;2024-02-16T17:28:34;-23.86;71.54
72762;SHT30;60886;55.034;73.150;2024-02-16T17:31:38;-23.87;71.48
72762;SHT30;60886;55.034;73.150;2024-02-16T17:34:40;-23.96;71.18
72762;SHT30;60886;55.034;73.150;2024-02-16T17:37:46;-24.01;71.13
72762;SHT30;60886;55.034;73.150;2024-02-16T17:40:54;-24.02;71.10
72762;SHT30;60886;55.034;73.150;2024-02-16T17:43:55;-24.15;71.06
72762;SHT30;60886;55.034;73.150;2024-02-16T17:46:57;-24.19;71.16
72762;SHT30;60886;55.034;73.150;2024-02-16T17:49:59;-24.19;71.59
72762;SHT30;60886;55.034;73.150;2024-02-16T17:53:01;-24.11;71.92
72762;SHT30;60886;55.034;73.150;2024-02-16T17:56:02;-24.15;71.78
72762;SHT30;60886;55.034;73.150;2024-02-16T17:59:05;-24.14;71.76
72762;SHT30;60886;55.034;73.150;2024-02-16T18:02:07;-24.09;71.74
72762;SHT30;60886;55.034;73.150;2024-02-16T18:05:10;-24.09;71.67
72762;SHT30;60886;55.034;73.150;2024-02-16T18:08:12;-24.12;71.53
72762;SHT30;60886;55.034;73.150;2024-02-16T18:11:15;-24.15;71.49
72762;SHT30;60886;55.034;73.150;2024-02-16T18:14:16;-24.21;71.45
72762;SHT30;60886;55.034;73.150;2024-02-16T18:17:18;-24.18;71.56
72762;SHT30;60886;55.034;73.150;2024-02-16T18:20:24;-24.21;71.56
72762;SHT30;60886;55.034;73.150;2024-02-16T18:23:26;-24.26;71.59
72762;SHT30;60886;55.034;73.150;2024-02-16T18:26:34;-24.21;71.87
72762;SHT30;60886;55.034;73.150;2024-02-16T18:29:39;-24.22;71.90
72762;SHT30;60886;55.034;73.150;2024-02-16T18:32:40;-24.28;71.61
72762;SHT30;60886;55.034;73.150;2024-02-16T18:35:42;-24.32;71.59
72762;SHT30;60886;55.034;73.150;2024-02-16T18:38:43;-24.38;71.51
72762;SHT30;60886;55.034;73.150;2024-02-16T18:41:47;-24.35;71.70